Time;durP1;ratioP1;P1;durP2;ratioP2;P2;SDS_P1;SDS_P2;PMS_P1;PMS_P2;Temp;Humidity;BMP_temperature;BMP_pressure;BME280_temperature;BME280_humidity;BME280_pressure;Samples;Min_cycle;Max_cycle;Signal;HPM_P1;HPM_P2
2021/07/20 00:02:02;0.00;0.00;0.62;0.00;0.00;0.62;5.53;4.53;;;27.50;31.90;;;;;;2260952;61;20432;-57
2021/07/20 00:04:49;0.00;0.00;0.62;0.00;0.00;0.62;4.40;3.90;;;27.50;31.90;;;;;;2261556;61;20362;-58
2021/07/20 00:07:34;0.00;0.00;0.62;0.00;0.00;0.62;5.30;3.90;;;27.50;31.90;;;;;;2258690;61;20370;-59
2021/07/20 00:10:23;0.00;0.00;0.62;0.00;0.00;0.62;4.60;3.30;;;27.50;31.90;;;;;;2261287;61;20358;-59
2021/07/20 00:13:08;0.00;0.00;0.62;0.00;0.00;0.62;4.73;3.90;;;27.50;31.90;;;;;;2262147;61;20434;-59
2021/07/20 00:15:55;0.00;0.00;0.62;0.00;0.00;0.62;4.30;3.60;;;27.50;31.90;;;;;;2261336;61;20481;-58
2021/07/20 00:18:41;0.00;0.00;0.62;0.00;0.00;0.62;3.57;3.27;;;27.50;31.90;;;;;;2261865;61;20401;-56
2021/07/20 00:21:27;0.00;0.00;0.62;0.00;0.00;0.62;4.10;3.57;;;27.50;31.90;;;;;;2261869;61;20734;-56
2021/07/20 00:24:12;0.00;0.00;0.62;0.00;0.00;0.62;4.13;3.50;;;27.50;31.90;;;;;;2261253;61;20597;-56
2021/07/20 00:26:56;0.00;0.00;0.62;0.00;0.00;0.62;4.07;3.67;;;27.50;31.90;;;;;;2262162;61;20370;-57
2021/07/20 00:29:42;0.00;0.00;0.62;0.00;0.00;0.62;4.43;3.80;;;27.50;31.80;;;;;;2261866;61;20369;-56
2021/07/20 00:32:27;0.00;0.00;0.62;0.00;0.00;0.62;3.70;3.13;;;27.50;31.80;;;;;;2261461;61;20452;-58
2021/07/20 00:35:13;0.00;0.00;0.62;0.00;0.00;0.62;4.10;3.70;;;27.50;31.80;;;;;;2258925;61;20381;-59
2021/07/20 00:37:59;0.00;0.00;0.62;0.00;0.00;0.62;3.77;3.40;;;27.50;31.80;;;;;;2258068;61;20396;-55
2021/07/20 00:40:46;0.00;0.00;0.62;0.00;0.00;0.62;3.77;3.37;;;27.50;31.80;;;;;;2258503;61;20389;-56
2021/07/20 00:43:31;0.00;0.00;0.62;0.00;0.00;0.62;4.10;3.17;;;27.50;31.80;;;;;;2261966;61;20385;-58
2021/07/20 00:46:16;0.00;0.00;0.62;0.00;0.00;0.62;4.40;3.23;;;27.50;32.40;;;;;;2261479;61;20363;-54
2021/07/20 00:49:00;0.00;0.00;0.62;0.00;0.00;0.62;5.23;3.60;;;27.50;31.80;;;;;;2258915;61;20362;-58
2021/07/20 00:51:48;0.00;0.00;0.62;0.00;0.00;0.62;5.30;4.00;;;27.50;31.70;;;;;;2258385;61;20393;-58
2021/07/20 00:54:37;0.00;0.00;0.62;0.00;0.00;0.62;3.20;2.80;;;27.50;31.80;;;;;;2258177;61;20362;-58
2021/07/20 00:57:22;0.00;0.00;0.62;0.00;0.00;0.62;3.57;3.03;;;27.50;31.80;;;;;;2258765;61;20366;-56
2021/07/20 01:00:11;0.00;0.00;0.62;0.00;0.00;0.62;5.10;3.43;;;27.50;31.70;;;;;;2255145;61;20405;-56
2021/07/20 01:02:56;0.00;0.00;0.62;0.00;0.00;0.62;3.77;3.20;;;27.40;31.70;;;;;;2258585;61;20649;-58
2021/07/20 01:05:42;0.00;0.00;0.62;0.00;0.00;0.62;4.07;3.53;;;27.50;31.70;;;;;;2261973;61;20385;-57
2021/07/20 01:08:30;0.00;0.00;0.62;0.00;0.00;0.62;3.47;3.17;;;27.50;31.70;;;;;;2261349;61;20386;-55
2021/07/20 01:11:17;0.00;0.00;0.62;0.00;0.00;0.62;3.57;3.27;;;27.50;31.70;;;;;;2258690;61;20386;-57
2021/07/20 01:14:03;0.00;0.00;0.62;0.00;0.00;0.62;3.70;3.20;;;27.40;31.70;;;;;;2258406;61;20444;-58
2021/07/20 01:16:49;0.00;0.00;0.62;0.00;0.00;0.62;4.10;3.60;;;27.40;31.70;;;;;;2258023;61;20362;-54
2021/07/20 01:19:41;0.00;0.00;0.62;0.00;0.00;0.62;3.83;3.53;;;27.40;31.70;;;;;;2258828;61;20725;-60
2021/07/20 01:22:32;0.00;0.00;0.62;0.00;0.00;0.62;4.30;3.27;;;27.40;31.70;;;;;;2257965;61;20393;-57
2021/07/20 01:25:20;0.00;0.00;0.62;0.00;0.00;0.62;4.20;3.50;;;27.40;31.70;;;;;;2258522;61;20366;-59
2021/07/20 01:28:08;0.00;0.00;0.62;0.00;0.00;0.62;3.60;3.00;;;27.40;31.70;;;;;;2258444;61;20433;-58
2021/07/20 01:30:58;0.00;0.00;0.62;0.00;0.00;0.62;3.33;3.03;;;27.40;31.70;;;;;;2257813;61;20493;-59
2021/07/20 01:33:49;0.00;0.00;0.62;0.00;0.00;0.62;4.90;3.50;;;27.40;31.70;;;;;;2261965;61;20389;-58
2021/07/20 01:36:39;0.00;0.00;0.62;0.00;0.00;0.62;3.23;2.80;;;27.40;31.70;;;;;;2261383;61;20470;-56
2021/07/20 01:39:25;0.00;0.00;0.62;0.00;0.00;0.62;3.87;3.50;;;27.40;31.70;;;;;;2258431;61;20350;-56
2021/07/20 01:42:14;0.00;0.00;0.62;0.00;0.00;0.62;3.30;2.83;;;27.40;31.70;;;;;;2258553;61;20386;-56
2021/07/20 01:45:01;0.00;0.00;0.62;0.00;0.00;0.62;4.00;3.53;;;27.40;31.70;;;;;;2257871;61;20436;-56
2021/07/20 01:47:49;0.00;0.00;0.62;0.00;0.00;0.62;4.20;3.30;;;27.40;31.70;;;;;;2261577;61;20593;-56
2021/07/20 01:50:36;0.00;0.00;0.62;0.00;0.00;0.62;3.67;3.37;;;27.40;31.70;;;;;;2258244;61;20361;-58
2021/07/20 01:53:22;0.00;0.00;0.62;0.00;0.00;0.62;5.50;3.27;;;27.40;31.70;;;;;;2261016;61;20502;-54
2021/07/20 01:56:09;0.00;0.00;0.62;0.00;0.00;0.62;3.80;3.23;;;27.40;31.70;;;;;;2258490;61;20450;-56
2021/07/20 01:58:56;0.00;0.00;0.62;0.00;0.00;0.62;3.70;3.03;;;27.40;31.70;;;;;;2258385;61;20382;-59
2021/07/20 02:02:11;0.00;0.00;0.62;0.00;0.00;0.62;4.53;3.30;;;27.40;31.70;;;;;;2261415;61;20781;-55
2021/07/20 02:08:25;0.00;0.00;0.62;0.00;0.00;0.62;3.30;3.00;;;27.40;31.70;;;;;;2257846;61;20362;-56
2021/07/20 02:11:18;0.00;0.00;0.62;0.00;0.00;0.62;4.23;3.27;;;27.40;31.80;;;;;;2258185;61;20409;-58
2021/07/20 02:14:12;0.00;0.00;0.62;0.00;0.00;0.62;3.97;3.40;;;27.40;31.80;;;;;;2257843;61;20381;-57
2021/07/20 02:17:16;0.00;0.00;0.62;0.00;0.00;0.62;3.33;2.80;;;27.40;31.80;;;;;;2261364;61;20371;-54
2021/07/20 02:20:08;0.00;0.00;0.62;0.00;0.00;0.62;6.40;3.97;;;27.40;31.80;;;;;;2258232;61;20365;-55
2021/07/20 02:23:06;0.00;0.00;0.62;0.00;0.00;0.62;4.23;3.53;;;27.30;31.80;;;;;;2257814;61;20384;-54
2021/07/20 02:25:55;0.00;0.00;0.62;0.00;0.00;0.62;3.30;3.00;;;27.40;31.80;;;;;;2258482;61;20370;-52
2021/07/20 02:28:45;0.00;0.00;0.62;0.00;0.00;0.62;3.37;2.90;;;27.30;31.80;;;;;;2258059;61;20362;-54
2021/07/20 02:31:32;0.00;0.00;0.62;0.00;0.00;0.62;3.83;3.43;;;27.30;31.80;;;;;;2261395;61;20741;-56
2021/07/20 02:34:22;0.00;0.00;0.62;0.00;0.00;0.62;4.97;2.77;;;27.40;31.80;;;;;;2258565;61;20562;-57
2021/07/20 02:37:21;0.00;0.00;0.62;0.00;0.00;0.62;3.60;3.30;;;27.30;31.80;;;;;;2258162;61;20404;-57
2021/07/20 02:40:10;0.00;0.00;0.62;0.00;0.00;0.62;3.30;3.00;;;27.30;31.80;;;;;;2258346;61;20794;-52
2021/07/20 02:43:00;0.00;0.00;0.62;0.00;0.00;0.62;3.60;3.03;;;27.30;31.80;;;;;;2258272;61;20449;-53
2021/07/20 02:45:47;0.00;0.00;0.62;0.00;0.00;0.62;3.87;3.47;;;27.30;31.90;;;;;;2257801;61;20362;-56
2021/07/20 02:48:35;0.00;0.00;0.62;0.00;0.00;0.62;3.93;3.40;;;27.30;31.90;;;;;;2258480;61;20485;-56
2021/07/20 02:51:23;0.00;0.00;0.62;0.00;0.00;0.62;3.90;3.40;;;27.30;31.90;;;;;;2257711;61;20386;-59
2021/07/20 02:54:08;0.00;0.00;0.62;0.00;0.00;0.62;4.30;3.90;;;27.30;31.90;;;;;;2261247;61;20396;-54
2021/07/20 02:56:55;0.00;0.00;0.62;0.00;0.00;0.62;4.10;3.00;;;27.30;31.90;;;;;;2258268;61;20397;-53
2021/07/20 02:59:44;0.00;0.00;0.62;0.00;0.00;0.62;4.10;3.57;;;27.30;31.90;;;;;;2261077;61;20610;-57
2021/07/20 03:02:35;0.00;0.00;0.62;0.00;0.00;0.62;5.67;3.30;;;27.30;31.90;;;;;;2258417;61;20801;-58
2021/07/20 03:05:22;0.00;0.00;0.62;0.00;0.00;0.62;4.70;3.37;;;27.30;31.90;;;;;;2258236;61;20681;-54
2021/07/20 03:08:11;0.00;0.00;0.62;0.00;0.00;0.62;3.80;3.23;;;27.30;31.90;;;;;;2257762;61;20357;-58
2021/07/20 03:11:13;0.00;0.00;0.62;0.00;0.00;0.62;3.47;3.17;;;27.30;31.90;;;;;;2258444;61;20392;-56
2021/07/20 03:14:04;0.00;0.00;0.62;0.00;0.00;0.62;3.90;3.50;;;27.30;31.90;;;;;;2260860;61;20390;-58
2021/07/20 03:16:53;0.00;0.00;0.62;0.00;0.00;0.62;3.20;2.87;;;27.30;31.90;;;;;;2258397;61;20366;-56
2021/07/20 03:19:44;0.00;0.00;0.62;0.00;0.00;0.62;3.60;3.20;;;27.30;31.90;;;;;;2258284;61;20623;-56
2021/07/20 03:22:34;0.00;0.00;0.62;0.00;0.00;0.62;4.10;3.70;;;27.20;31.90;;;;;;2257700;61;20806;-58
2021/07/20 03:25:27;0.00;0.00;0.62;0.00;0.00;0.62;3.60;3.10;;;27.30;32.00;;;;;;2259193;61;20746;-55
2021/07/20 03:28:13;0.00;0.00;0.62;0.00;0.00;0.62;4.00;3.53;;;27.20;31.90;;;;;;2258245;61;20403;-57
2021/07/20 03:31:00;0.00;0.00;0.62;0.00;0.00;0.62;3.50;2.73;;;27.20;32.00;;;;;;2258715;61;20393;-57
2021/07/20 03:33:46;0.00;0.00;0.62;0.00;0.00;0.62;3.90;3.50;;;27.20;32.00;;;;;;2259240;61;20362;-56
2021/07/20 03:36:44;0.00;0.00;0.62;0.00;0.00;0.62;4.33;3.60;;;27.20;32.00;;;;;;2258072;61;20404;-57
2021/07/20 03:39:31;0.00;0.00;0.62;0.00;0.00;0.62;6.03;3.07;;;27.20;32.00;;;;;;2259136;61;20474;-59
2021/07/20 03:42:19;0.00;0.00;0.62;0.00;0.00;0.62;3.97;3.20;;;27.20;32.00;;;;;;2258603;61;20445;-58
2021/07/20 03:45:07;0.00;0.00;0.62;0.00;0.00;0.62;3.57;3.03;;;27.20;32.10;;;;;;2261504;61;20354;-60
2021/07/20 03:47:53;0.00;0.00;0.62;0.00;0.00;0.62;3.30;3.00;;;27.20;32.10;;;;;;2259018;61;20366;-60
2021/07/20 03:50:57;0.00;0.00;0.62;0.00;0.00;0.62;4.40;3.80;;;27.20;32.10;;;;;;2258154;61;20413;-59
2021/07/20 03:53:43;0.00;0.00;0.62;0.00;0.00;0.62;3.53;3.17;;;27.20;32.10;;;;;;2262194;61;20567;-59
2021/07/20 03:56:33;0.00;0.00;0.62;0.00;0.00;0.62;5.30;4.07;;;27.20;32.10;;;;;;2258672;61;20358;-57
2021/07/20 03:59:19;0.00;0.00;0.62;0.00;0.00;0.62;3.90;3.37;;;27.20;32.10;;;;;;2258295;61;20374;-58
2021/07/20 04:02:24;0.00;0.00;0.62;0.00;0.00;0.62;5.50;3.90;;;27.20;32.10;;;;;;2262172;61;20466;-57
2021/07/20 04:05:15;0.00;0.00;0.62;0.00;0.00;0.62;3.97;3.10;;;27.20;32.10;;;;;;2261318;61;20370;-58
2021/07/20 04:08:01;0.00;0.00;0.62;0.00;0.00;0.62;3.50;3.20;;;27.20;32.10;;;;;;2258600;61;20450;-58
2021/07/20 04:10:58;0.00;0.00;0.62;0.00;0.00;0.62;4.57;3.30;;;27.20;32.20;;;;;;2258343;61;20374;-58
2021/07/20 04:13:52;0.00;0.00;0.62;0.00;0.00;0.62;3.80;2.97;;;27.20;32.20;;;;;;2258187;61;20589;-54
2021/07/20 04:16:53;0.00;0.00;0.62;0.00;0.00;0.62;4.10;2.90;;;27.20;32.20;;;;;;2258841;61;20841;-58
2021/07/20 04:19:38;0.00;0.00;0.62;0.00;0.00;0.62;3.97;3.20;;;27.20;32.20;;;;;;2261870;61;20361;-57
2021/07/20 04:22:26;0.00;0.00;0.62;0.00;0.00;0.62;4.90;3.87;;;27.20;32.20;;;;;;2261819;61;20413;-56
2021/07/20 04:25:13;0.00;0.00;0.62;0.00;0.00;0.62;3.50;3.20;;;27.20;32.20;;;;;;2258804;61;20427;-53
2021/07/20 04:28:01;0.00;0.00;0.62;0.00;0.00;0.62;3.90;3.50;;;27.20;32.20;;;;;;2258350;61;20777;-56
2021/07/20 04:30:48;0.00;0.00;0.62;0.00;0.00;0.62;4.53;3.60;;;27.20;32.20;;;;;;2261915;61;20382;-54
2021/07/20 04:33:36;0.00;0.00;0.62;0.00;0.00;0.62;4.20;3.30;;;27.20;32.30;;;;;;2261629;61;20366;-56
2021/07/20 04:36:56;0.00;0.00;0.62;0.00;0.00;0.62;3.90;3.47;;;27.20;32.30;;;;;;2248508;61;20364;-58
2021/07/20 04:39:55;0.00;0.00;0.62;0.00;0.00;0.62;3.87;3.50;;;27.20;32.30;;;;;;2258707;61;20378;-53
2021/07/20 04:42:42;0.00;0.00;0.62;0.00;0.00;0.62;4.27;3.43;;;27.20;32.40;;;;;;2258228;61;20785;-52
2021/07/20 04:45:29;0.00;0.00;0.62;0.00;0.00;0.62;3.77;3.33;;;27.20;32.40;;;;;;2258576;61;20730;-55
2021/07/20 04:48:20;0.00;0.00;0.62;0.00;0.00;0.62;6.70;3.80;;;27.20;32.40;;;;;;2258407;61;20358;-60
2021/07/20 04:51:11;0.00;0.00;0.62;0.00;0.00;0.62;4.27;3.53;;;27.20;32.40;;;;;;2257910;61;20707;-59
2021/07/20 04:53:58;0.00;0.00;0.62;0.00;0.00;0.62;4.10;3.70;;;27.20;32.40;;;;;;2258713;61;20389;-60
2021/07/20 04:56:45;0.00;0.00;0.62;0.00;0.00;0.62;6.43;3.97;;;27.20;32.50;;;;;;2258251;61;20362;-58
2021/07/20 04:59:31;0.00;0.00;0.62;0.00;0.00;0.62;6.47;4.47;;;27.20;32.50;;;;;;2258473;61;20448;-60
2021/07/20 05:02:17;0.00;0.00;0.62;0.00;0.00;0.62;7.17;4.50;;;27.20;32.30;;;;;;2261840;61;20386;-58
2021/07/20 05:05:14;0.00;0.00;0.62;0.00;0.00;0.62;5.37;4.57;;;27.20;32.20;;;;;;2261328;61;20409;-59
2021/07/20 05:08:00;0.00;0.00;0.62;0.00;0.00;0.62;4.87;4.27;;;27.10;32.10;;;;;;2258722;61;20382;-59
2021/07/20 05:10:52;0.00;0.00;0.62;0.00;0.00;0.62;5.80;5.20;;;27.10;32.10;;;;;;2258481;61;20417;-59
2021/07/20 05:13:44;0.00;0.00;0.62;0.00;0.00;0.62;6.30;5.27;;;27.00;32.10;;;;;;2258125;61;20464;-58
2021/07/20 05:16:33;0.00;0.00;0.62;0.00;0.00;0.62;7.20;4.40;;;27.00;32.20;;;;;;2258838;61;20366;-60
2021/07/20 05:19:23;0.00;0.00;0.62;0.00;0.00;0.62;4.77;3.83;;;26.90;32.10;;;;;;2258299;61;20687;-56
2021/07/20 05:22:28;0.00;0.00;0.62;0.00;0.00;0.62;5.40;4.10;;;26.90;32.10;;;;;;2261710;61;20504;-58
2021/07/20 05:25:14;0.00;0.00;0.62;0.00;0.00;0.62;5.57;4.97;;;26.80;32.00;;;;;;2258456;61;20366;-57
2021/07/20 05:28:00;0.00;0.00;0.62;0.00;0.00;0.62;5.27;4.77;;;26.70;32.00;;;;;;2257851;61;20366;-56
2021/07/20 05:30:50;0.00;0.00;0.62;0.00;0.00;0.62;5.13;4.50;;;26.70;32.10;;;;;;2258709;61;20397;-54
2021/07/20 05:33:37;0.00;0.00;0.62;0.00;0.00;0.62;9.00;5.00;;;26.70;32.20;;;;;;2258501;61;20365;-59
2021/07/20 05:36:29;0.00;0.00;0.62;0.00;0.00;0.62;6.60;5.17;;;26.70;32.20;;;;;;2258297;61;20390;-56
2021/07/20 05:39:16;0.00;0.00;0.62;0.00;0.00;0.62;6.87;5.20;;;26.60;32.20;;;;;;2258843;61;20386;-57
2021/07/20 05:42:09;0.00;0.00;0.62;0.00;0.00;0.62;5.10;4.30;;;26.60;32.20;;;;;;2258263;61;20464;-59
2021/07/20 05:44:59;0.00;0.00;0.62;0.00;0.00;0.62;6.77;4.40;;;26.60;32.30;;;;;;2258716;61;20413;-58
2021/07/20 05:47:49;0.00;0.00;0.62;0.00;0.00;0.62;5.50;4.17;;;26.50;32.50;;;;;;2261689;61;20393;-59
2021/07/20 05:50:40;0.00;0.00;0.62;0.00;0.00;0.62;4.70;4.17;;;26.60;32.60;;;;;;2257917;61;20370;-58
2021/07/20 05:53:44;0.00;0.00;0.62;0.00;0.00;0.62;4.57;3.93;;;26.50;32.60;;;;;;2261883;61;20452;-59
2021/07/20 05:56:50;0.00;0.00;0.62;0.00;0.00;0.62;5.90;3.87;;;26.60;32.80;;;;;;2261131;61;20361;-56
2021/07/20 05:59:54;0.00;0.00;0.62;0.00;0.00;0.62;3.90;3.40;;;26.60;32.90;;;;;;2261844;61;20370;-58
2021/07/20 06:02:48;0.00;0.00;0.62;0.00;0.00;0.62;5.50;4.70;;;26.60;32.80;;;;;;2258467;61;20458;-59
2021/07/20 06:05:42;0.00;0.00;0.62;0.00;0.00;0.62;4.30;3.90;;;26.60;32.80;;;;;;2257923;61;20389;-59
2021/07/20 06:08:28;0.00;0.00;0.62;0.00;0.00;0.62;5.17;4.67;;;26.70;33.00;;;;;;2261943;61;20692;-59
2021/07/20 06:11:13;0.00;0.00;0.62;0.00;0.00;0.62;4.20;3.60;;;26.70;33.00;;;;;;2260817;61;20382;-58
2021/07/20 06:14:02;0.00;0.00;0.62;0.00;0.00;0.62;4.60;3.90;;;26.70;33.00;;;;;;2258233;61;20431;-58
2021/07/20 06:16:46;0.00;0.00;0.62;0.00;0.00;0.62;4.00;3.33;;;26.70;33.00;;;;;;2261424;61;20389;-59
2021/07/20 06:19:31;0.00;0.00;0.62;0.00;0.00;0.62;6.37;5.00;;;26.80;33.10;;;;;;2260771;61;20385;-60
2021/07/20 06:22:21;0.00;0.00;0.62;0.00;0.00;0.62;6.00;4.20;;;26.70;33.00;;;;;;2261600;61;20599;-61
2021/07/20 06:25:16;0.00;0.00;0.62;0.00;0.00;0.62;6.07;3.70;;;26.80;33.10;;;;;;2258130;61;20773;-55
2021/07/20 06:28:05;0.00;0.00;0.62;0.00;0.00;0.62;4.03;3.37;;;26.80;33.00;;;;;;2261183;61;20399;-62
2021/07/20 06:30:51;0.00;0.00;0.62;0.00;0.00;0.62;4.83;3.50;;;26.80;33.00;;;;;;2261535;61;20481;-59
2021/07/20 06:33:38;0.00;0.00;0.62;0.00;0.00;0.62;8.07;4.47;;;26.80;33.00;;;;;;2260900;61;20781;-57
2021/07/20 06:36:24;0.00;0.00;0.62;0.00;0.00;0.62;5.27;3.53;;;26.90;33.10;;;;;;2261468;61;20587;-59
2021/07/20 06:39:10;0.00;0.00;0.62;0.00;0.00;0.62;4.90;3.40;;;26.90;33.10;;;;;;2261374;61;20819;-55
2021/07/20 06:41:56;0.00;0.00;0.62;0.00;0.00;0.62;4.67;3.70;;;26.90;33.10;;;;;;2260718;61;20605;-60
2021/07/20 06:44:43;0.00;0.00;0.62;0.00;0.00;0.62;3.67;3.07;;;27.00;33.20;;;;;;2261639;61;20424;-55
2021/07/20 06:47:32;0.00;0.00;0.62;0.00;0.00;0.62;4.77;3.67;;;27.00;33.20;;;;;;2261305;61;20583;-60
2021/07/20 06:50:20;0.00;0.00;0.62;0.00;0.00;0.62;4.83;3.80;;;27.00;33.20;;;;;;2261285;61;20362;-59
2021/07/20 06:53:07;0.00;0.00;0.62;0.00;0.00;0.62;5.30;3.70;;;27.00;33.20;;;;;;2261554;61;20709;-59
2021/07/20 06:55:55;0.00;0.00;0.62;0.00;0.00;0.62;3.30;2.83;;;27.00;33.10;;;;;;2257733;61;20394;-59
2021/07/20 06:58:41;0.00;0.00;0.62;0.00;0.00;0.62;4.93;3.57;;;27.00;33.10;;;;;;2261991;61;20365;-59
2021/07/20 07:01:30;0.00;0.00;0.62;0.00;0.00;0.62;3.43;3.10;;;27.10;33.10;;;;;;2261921;61;20377;-60
2021/07/20 07:04:24;0.00;0.00;0.62;0.00;0.00;0.62;7.03;3.40;;;27.10;33.10;;;;;;2258537;61;20439;-60
2021/07/20 07:07:09;0.00;0.00;0.62;0.00;0.00;0.62;5.07;3.93;;;27.10;33.20;;;;;;2262296;61;20369;-61
2021/07/20 07:09:55;0.00;0.00;0.62;0.00;0.00;0.62;3.37;3.00;;;27.10;33.20;;;;;;2261945;61;20392;-60
2021/07/20 07:12:40;0.00;0.00;0.62;0.00;0.00;0.62;5.23;3.60;;;27.20;33.30;;;;;;2258799;61;20381;-59
2021/07/20 07:15:26;0.00;0.00;0.62;0.00;0.00;0.62;5.47;3.20;;;27.20;33.30;;;;;;2262245;61;20400;-58
2021/07/20 07:18:11;0.00;0.00;0.62;0.00;0.00;0.62;3.40;3.03;;;27.20;33.30;;;;;;2261590;61;20357;-59
2021/07/20 07:20:58;0.00;0.00;0.62;0.00;0.00;0.62;4.50;3.80;;;27.20;33.20;;;;;;2262082;61;20428;-59
2021/07/20 07:23:43;0.00;0.00;0.62;0.00;0.00;0.62;4.17;2.80;;;27.20;33.20;;;;;;2261934;61;20491;-58
2021/07/20 07:26:28;0.00;0.00;0.62;0.00;0.00;0.62;4.77;3.40;;;27.30;33.20;;;;;;2258346;61;20452;-60
2021/07/20 07:29:15;0.00;0.00;0.62;0.00;0.00;0.62;4.07;2.97;;;27.30;33.20;;;;;;2262265;61;20734;-56
2021/07/20 07:32:00;0.00;0.00;0.62;0.00;0.00;0.62;3.30;3.00;;;27.30;33.10;;;;;;2261891;61;20382;-58
2021/07/20 07:34:45;0.00;0.00;0.62;0.00;0.00;0.62;4.00;3.27;;;27.30;33.10;;;;;;2261878;61;20365;-59
2021/07/20 07:37:33;0.00;0.00;0.62;0.00;0.00;0.62;4.53;3.53;;;27.30;33.10;;;;;;2262117;61;20745;-57
2021/07/20 07:40:19;0.00;0.00;0.62;0.00;0.00;0.62;3.70;2.97;;;27.40;33.20;;;;;;2255598;61;20370;-60
2021/07/20 07:43:05;0.00;0.00;0.62;0.00;0.00;0.62;3.33;3.03;;;27.40;33.10;;;;;;2262072;61;20432;-56
2021/07/20 07:45:52;0.00;0.00;0.62;0.00;0.00;0.62;3.90;3.20;;;27.40;33.10;;;;;;2261827;61;20390;-56
2021/07/20 07:48:39;0.00;0.00;0.62;0.00;0.00;0.62;4.33;3.90;;;27.40;33.10;;;;;;2261418;61;20362;-60
2021/07/20 07:51:24;0.00;0.00;0.62;0.00;0.00;0.62;3.27;2.80;;;27.40;33.00;;;;;;2262049;61;20377;-60
2021/07/20 07:54:11;0.00;0.00;0.62;0.00;0.00;0.62;4.90;3.70;;;27.40;33.00;;;;;;2261888;61;20358;-57
2021/07/20 07:56:57;0.00;0.00;0.62;0.00;0.00;0.62;7.40;2.97;;;27.40;32.70;;;;;;2258666;61;20370;-60
2021/07/20 07:59:44;0.00;0.00;0.62;0.00;0.00;0.62;12.53;3.03;;;27.40;32.60;;;;;;2262144;61;20609;-60
2021/07/20 08:02:34;0.00;0.00;0.62;0.00;0.00;0.62;6.33;3.60;;;27.40;32.60;;;;;;2261528;61;20455;-60
2021/07/20 08:05:23;0.00;0.00;0.62;0.00;0.00;0.62;4.60;3.57;;;27.40;32.60;;;;;;2262028;61;20362;-57
2021/07/20 08:08:08;0.00;0.00;0.62;0.00;0.00;0.62;4.00;3.20;;;27.40;32.60;;;;;;2261840;61;20525;-56
2021/07/20 08:10:55;0.00;0.00;0.62;0.00;0.00;0.62;4.60;3.67;;;27.40;32.60;;;;;;2261129;61;20416;-60
2021/07/20 08:13:42;0.00;0.00;0.62;0.00;0.00;0.62;3.37;3.07;;;27.50;32.70;;;;;;2262062;61;20640;-60
2021/07/20 08:16:32;0.00;0.00;0.62;0.00;0.00;0.62;4.17;2.80;;;27.50;32.70;;;;;;2261872;61;20366;-61
2021/07/20 08:19:19;0.00;0.00;0.62;0.00;0.00;0.62;3.97;3.20;;;27.50;32.70;;;;;;2261815;61;20426;-59
2021/07/20 08:22:11;0.00;0.00;0.62;0.00;0.00;0.62;3.30;2.87;;;27.50;32.80;;;;;;2256084;61;20381;-60
2021/07/20 08:25:03;0.00;0.00;0.62;0.00;0.00;0.62;3.57;3.00;;;27.50;32.70;;;;;;2261575;61;20588;-60
2021/07/20 08:27:58;0.00;0.00;0.62;0.00;0.00;0.62;3.20;2.63;;;27.50;32.70;;;;;;2262027;61;20362;-60
2021/07/20 08:30:47;0.00;0.00;0.62;0.00;0.00;0.62;4.70;3.27;;;27.60;32.80;;;;;;2261687;61;20382;-60
2021/07/20 08:33:34;0.00;0.00;0.62;0.00;0.00;0.62;3.93;2.97;;;27.60;32.80;;;;;;2261396;61;20729;-61
2021/07/20 08:36:19;0.00;0.00;0.62;0.00;0.00;0.62;3.63;2.60;;;27.60;32.70;;;;;;2262047;61;20361;-59
2021/07/20 08:39:07;0.00;0.00;0.62;0.00;0.00;0.62;3.60;2.80;;;27.60;32.70;;;;;;2261354;61;20431;-60
2021/07/20 08:42:08;0.00;0.00;0.62;0.00;0.00;0.62;7.63;2.93;;;27.70;32.80;;;;;;2258539;61;20388;-60
2021/07/20 08:45:11;0.00;0.00;0.62;0.00;0.00;0.62;3.40;2.70;;;27.70;32.80;;;;;;2261671;61;20359;-60
2021/07/20 08:48:14;0.00;0.00;0.62;0.00;0.00;0.62;3.40;2.43;;;27.70;32.80;;;;;;2261181;61;20365;-60
2021/07/20 08:51:04;0.00;0.00;0.62;0.00;0.00;0.62;5.70;2.80;;;27.70;32.80;;;;;;2261896;61;20409;-61
2021/07/20 08:53:56;0.00;0.00;0.62;0.00;0.00;0.62;3.00;2.70;;;27.70;32.80;;;;;;2258232;61;20354;-59
2021/07/20 08:56:44;0.00;0.00;0.62;0.00;0.00;0.62;3.00;2.57;;;27.70;32.70;;;;;;2261684;61;20401;-60
2021/07/20 08:59:37;0.00;0.00;0.62;0.00;0.00;0.62;3.07;2.77;;;27.80;32.80;;;;;;2261831;61;20432;-60
2021/07/20 09:02:36;0.00;0.00;0.62;0.00;0.00;0.62;3.70;3.10;;;27.80;32.80;;;;;;2261111;61;20437;-60
2021/07/20 09:05:27;0.00;0.00;0.62;0.00;0.00;0.62;3.70;2.87;;;27.80;33.40;;;;;;2261912;61;20478;-59
2021/07/20 09:08:18;0.00;0.00;0.62;0.00;0.00;0.62;2.77;2.43;;;27.80;32.80;;;;;;2261733;61;20409;-60
2021/07/20 09:11:11;0.00;0.00;0.62;0.00;0.00;0.62;3.80;2.90;;;27.80;32.80;;;;;;2261389;61;20462;-57
2021/07/20 09:14:06;0.00;0.00;0.62;0.00;0.00;0.62;3.47;3.17;;;27.90;32.80;;;;;;2262075;61;20434;-59
2021/07/20 09:16:53;0.00;0.00;0.62;0.00;0.00;0.62;4.70;3.40;;;27.90;32.60;;;;;;2261385;61;20355;-60
2021/07/20 09:19:50;0.00;0.00;0.62;0.00;0.00;0.62;4.17;2.53;;;27.90;32.60;;;;;;2261903;61;20358;-56
2021/07/20 09:22:38;0.00;0.00;0.62;0.00;0.00;0.62;3.43;3.13;;;27.90;32.60;;;;;;2261608;61;20390;-57
2021/07/20 09:25:31;0.00;0.00;0.62;0.00;0.00;0.62;3.87;3.47;;;27.90;32.60;;;;;;2261098;61;20362;-60
2021/07/20 09:28:26;0.00;0.00;0.62;0.00;0.00;0.62;5.30;3.10;;;27.90;32.50;;;;;;2261957;61;20458;-60
2021/07/20 09:31:26;0.00;0.00;0.62;0.00;0.00;0.62;4.60;3.03;;;27.90;32.50;;;;;;2261119;61;20381;-56
2021/07/20 09:34:20;0.00;0.00;0.62;0.00;0.00;0.62;5.10;2.70;;;28.00;32.60;;;;;;2258682;61;20359;-60
2021/07/20 09:37:10;0.00;0.00;0.62;0.00;0.00;0.62;4.90;3.10;;;28.00;32.50;;;;;;2261613;61;20432;-58
2021/07/20 09:40:10;0.00;0.00;0.62;0.00;0.00;0.62;2.73;2.37;;;28.00;32.50;;;;;;2260981;61;20358;-60
2021/07/20 09:43:04;0.00;0.00;0.62;0.00;0.00;0.62;3.23;2.70;;;28.00;32.50;;;;;;2261865;61;20389;-59
2021/07/20 09:45:58;0.00;0.00;0.62;0.00;0.00;0.62;2.70;2.43;;;28.00;32.50;;;;;;2261154;61;20761;-60
2021/07/20 09:48:50;0.00;0.00;0.62;0.00;0.00;0.62;2.60;2.33;;;28.00;32.50;;;;;;2261522;61;20362;-56
2021/07/20 09:52:32;0.00;0.00;0.62;0.00;0.00;0.62;4.70;2.40;;;28.00;32.40;;;;;;2261407;61;20386;-60
2021/07/20 09:55:36;0.00;0.00;0.62;0.00;0.00;0.62;3.20;2.60;;;28.10;32.40;;;;;;2261445;61;20365;-60
2021/07/20 09:58:28;0.00;0.00;0.62;0.00;0.00;0.62;3.03;2.57;;;28.10;32.30;;;;;;2261784;61;20400;-59
2021/07/20 10:01:22;0.00;0.00;0.62;0.00;0.00;0.62;2.20;2.00;;;28.10;32.20;;;;;;2261199;61;20401;-59
2021/07/20 10:04:15;0.00;0.00;0.62;0.00;0.00;0.62;3.57;2.60;;;28.10;32.10;;;;;;2258711;61;20394;-58
2021/07/20 10:07:11;0.00;0.00;0.62;0.00;0.00;0.62;3.00;2.50;;;28.10;32.10;;;;;;2261411;61;20365;-52
2021/07/20 10:10:06;0.00;0.00;0.62;0.00;0.00;0.62;2.57;2.37;;;28.10;32.10;;;;;;2260945;61;20381;-58
2021/07/20 10:13:06;0.00;0.00;0.62;0.00;0.00;0.62;3.27;2.80;;;28.10;32.10;;;;;;2261783;61;20466;-58
2021/07/20 10:16:08;0.00;0.00;0.62;0.00;0.00;0.62;4.60;3.03;;;28.10;31.50;;;;;;2257836;61;20430;-61
2021/07/20 10:19:01;0.00;0.00;0.62;0.00;0.00;0.62;5.43;3.37;;;28.10;30.10;;;;;;2261843;61;20393;-55
2021/07/20 10:21:51;0.00;0.00;0.62;0.00;0.00;0.62;5.00;3.40;;;28.10;30.00;;;;;;2261235;61;20489;-54
2021/07/20 10:24:42;0.00;0.00;0.62;0.00;0.00;0.62;3.50;2.90;;;28.00;29.70;;;;;;2260965;61;20362;-54
2021/07/20 10:27:38;0.00;0.00;0.62;0.00;0.00;0.62;4.20;3.20;;;28.00;29.60;;;;;;2261703;61;20354;-56
2021/07/20 10:30:25;0.00;0.00;0.62;0.00;0.00;0.62;7.10;3.17;;;27.90;29.60;;;;;;2257664;61;20578;-54
2021/07/20 10:33:18;0.00;0.00;0.62;0.00;0.00;0.62;4.17;3.23;;;27.90;29.40;;;;;;2261378;61;20385;-59
2021/07/20 10:36:08;0.00;0.00;0.62;0.00;0.00;0.62;3.20;2.90;;;27.80;28.90;;;;;;2261280;61;20370;-58
2021/07/20 10:39:00;0.00;0.00;0.62;0.00;0.00;0.62;5.80;3.40;;;27.80;28.80;;;;;;2260850;61;20389;-59
2021/07/20 10:41:57;0.00;0.00;0.62;0.00;0.00;0.62;3.90;3.47;;;27.70;28.90;;;;;;2261546;61;20417;-56
2021/07/20 10:44:54;0.00;0.00;0.62;0.00;0.00;0.62;5.80;3.20;;;27.60;29.00;;;;;;2260747;61;20354;-55
2021/07/20 10:47:47;0.00;0.00;0.62;0.00;0.00;0.62;3.50;3.20;;;27.50;29.10;;;;;;2261442;61;20366;-57
2021/07/20 10:50:41;0.00;0.00;0.62;0.00;0.00;0.62;4.40;3.30;;;27.50;29.30;;;;;;2261252;61;20431;-59
2021/07/20 10:53:36;0.00;0.00;0.62;0.00;0.00;0.62;4.40;3.27;;;27.40;29.40;;;;;;2260973;61;20644;-58
2021/07/20 10:56:28;0.00;0.00;0.62;0.00;0.00;0.62;5.67;4.20;;;27.40;29.50;;;;;;2261646;61;20366;-58
2021/07/20 10:59:27;0.00;0.00;0.62;0.00;0.00;0.62;5.20;4.70;;;27.40;29.60;;;;;;2261238;61;20405;-59
2021/07/20 11:02:29;0.00;0.00;0.62;0.00;0.00;0.62;4.57;4.00;;;27.40;29.70;;;;;;2261287;61;20382;-59
2021/07/20 11:05:16;0.00;0.00;0.62;0.00;0.00;0.62;5.03;3.93;;;27.40;29.70;;;;;;2261521;61;20358;-59
2021/07/20 11:08:03;0.00;0.00;0.62;0.00;0.00;0.62;4.00;3.57;;;27.40;29.60;;;;;;2260870;61;20362;-59
2021/07/20 11:10:53;0.00;0.00;0.62;0.00;0.00;0.62;6.17;3.93;;;27.40;29.40;;;;;;2261442;61;20382;-57
2021/07/20 11:13:40;0.00;0.00;0.62;0.00;0.00;0.62;4.20;3.50;;;27.40;29.50;;;;;;2261275;61;20350;-58
2021/07/20 11:16:26;0.00;0.00;0.62;0.00;0.00;0.62;4.27;3.87;;;27.40;29.50;;;;;;2260990;61;20350;-58